Terminal Aerodrome Forecast
Issued by NWS

Home | Current Version | Previous Version | Text Only | Print | Product List | Glossary On
Versions: 1 2 3 4 5 6 7 8 9 10 11 12 13 14 15
000
FTUS41 KBGM 231100 RRA
TAFITH
TAF
KITH 231158Z 2312/2412 32012G20KT 5SM -SHRA BR OVC006
      TEMPO 2312/2313 2SM -SHRA BR OVC004
     FM231400 32015G22KT P6SM -SHRA OVC012
      TEMPO 2314/2316 5SM -SHRA BR OVC008
     FM231600 32018G25KT P6SM BKN020 OVC035
     FM232000 32018G25KT P6SM BKN035
     FM240100 31010KT P6SM SKC=

USA.gov is the U.S. government's official web portal to all federal, state and local government web resources and services.